sensor_id;sensor_type;location;lat;lon;timestamp;temperature;humidity
44069;DHT22;29738;51.234;5.484;2022-07-09T00:00:22;17.40;99.90
44069;DHT22;29738;51.234;5.484;2022-07-09T00:02:47;17.40;99.90
44069;DHT22;29738;51.234;5.484;2022-07-09T00:05:13;17.40;99.90
44069;DHT22;29738;51.234;5.484;2022-07-09T00:07:40;17.30;99.90
44069;DHT22;29738;51.234;5.484;2022-07-09T00:10:06;17.30;99.90
44069;DHT22;29738;51.234;5.484;2022-07-09T00:12:32;17.50;99.90
44069;DHT22;29738;51.234;5.484;2022-07-09T00:14:58;17.60;99.90
44069;DHT22;29738;51.234;5.484;2022-07-09T00:17:24;17.70;99.90
44069;DHT22;29738;51.234;5.484;2022-07-09T00:19:51;17.80;99.90
44069;DHT22;29738;51.234;5.484;2022-07-09T00:22:17;17.50;99.90
44069;DHT22;29738;51.234;5.484;2022-07-09T00:24:43;17.60;99.90
44069;DHT22;29738;51.234;5.484;2022-07-09T00:27:09;17.90;99.90
44069;DHT22;29738;51.234;5.484;2022-07-09T00:29:35;17.70;99.90
44069;DHT22;29738;51.234;5.484;2022-07-09T00:32:01;17.80;99.90
44069;DHT22;29738;51.234;5.484;2022-07-09T00:34:27;17.50;99.90
44069;DHT22;29738;51.234;5.484;2022-07-09T00:36:52;17.30;99.90
44069;DHT22;29738;51.234;5.484;2022-07-09T00:39:18;17.10;99.90
44069;DHT22;29738;51.234;5.484;2022-07-09T00:41:44;16.90;99.90
44069;DHT22;29738;51.234;5.484;2022-07-09T00:44:10;16.90;99.90
44069;DHT22;29738;51.234;5.484;2022-07-09T00:46:35;16.90;99.90
44069;DHT22;29738;51.234;5.484;2022-07-09T00:49:01;17.00;99.90
44069;DHT22;29738;51.234;5.484;2022-07-09T00:51:30;16.90;99.90
44069;DHT22;29738;51.234;5.484;2022-07-09T00:53:56;17.00;99.90
44069;DHT22;29738;51.234;5.484;2022-07-09T00:56:23;17.00;99.90
44069;DHT22;29738;51.234;5.484;2022-07-09T00:58:50;16.90;99.90
44069;DHT22;29738;51.234;5.484;2022-07-09T01:01:16;16.80;99.90
44069;DHT22;29738;51.234;5.484;2022-07-09T01:03:42;16.70;99.90
44069;DHT22;29738;51.234;5.484;2022-07-09T01:06:08;16.70;99.90
44069;DHT22;29738;51.234;5.484;2022-07-09T01:08:33;16.80;99.90
44069;DHT22;29738;51.234;5.484;2022-07-09T01:10:59;16.70;99.90
44069;DHT22;29738;51.234;5.484;2022-07-09T01:13:26;16.70;99.90
44069;DHT22;29738;51.234;5.484;2022-07-09T01:15:51;16.60;99.90
44069;DHT22;29738;51.234;5.484;2022-07-09T01:18:17;16.80;99.90
44069;DHT22;29738;51.234;5.484;2022-07-09T01:20:44;16.80;99.90
44069;DHT22;29738;51.234;5.484;2022-07-09T01:23:10;16.60;99.90
44069;DHT22;29738;51.234;5.484;2022-07-09T01:28:03;16.50;99.90
44069;DHT22;29738;51.234;5.484;2022-07-09T01:30:31;16.50;99.90
44069;DHT22;29738;51.234;5.484;2022-07-09T01:32:58;16.50;99.90
44069;DHT22;29738;51.234;5.484;2022-07-09T01:35:23;16.50;99.90
44069;DHT22;29738;51.234;5.484;2022-07-09T01:37:50;16.50;99.90
44069;DHT22;29738;51.234;5.484;2022-07-09T01:40:16;16.50;99.90
44069;DHT22;29738;51.234;5.484;2022-07-09T01:42:42;16.40;99.90
44069;DHT22;29738;51.234;5.484;2022-07-09T01:45:08;16.40;99.90
44069;DHT22;29738;51.234;5.484;2022-07-09T01:47:34;16.50;99.90
44069;DHT22;29738;51.234;5.484;2022-07-09T01:50:00;16.60;99.90
44069;DHT22;29738;51.234;5.484;2022-07-09T01:52:26;16.40;99.90
44069;DHT22;29738;51.234;5.484;2022-07-09T01:54:52;16.30;99.90
44069;DHT22;29738;51.234;5.484;2022-07-09T01:57:18;16.30;99.90
44069;DHT22;29738;51.234;5.484;2022-07-09T01:59:44;16.30;99.90
44069;DHT22;29738;51.234;5.484;2022-07-09T02:02:09;16.30;99.90
44069;DHT22;29738;51.234;5.484;2022-07-09T02:04:35;16.30;99.90
44069;DHT22;29738;51.234;5.484;2022-07-09T02:07:01;16.30;99.90
44069;DHT22;29738;51.234;5.484;2022-07-09T02:09:27;16.10;99.90
44069;DHT22;29738;51.234;5.484;2022-07-09T02:11:53;16.10;99.90
44069;DHT22;29738;51.234;5.484;2022-07-09T02:14:19;16.10;99.90
44069;DHT22;29738;51.234;5.484;2022-07-09T02:16:44;16.00;99.90
44069;DHT22;29738;51.234;5.484;2022-07-09T02:19:10;16.10;99.90
44069;DHT22;29738;51.234;5.484;2022-07-09T02:21:36;16.10;99.90
44069;DHT22;29738;51.234;5.484;2022-07-09T02:24:02;16.20;99.90
44069;DHT22;29738;51.234;5.484;2022-07-09T02:26:28;16.20;99.90
44069;DHT22;29738;51.234;5.484;2022-07-09T02:28:58;16.10;99.90
44069;DHT22;29738;51.234;5.484;2022-07-09T02:31:25;16.00;99.90
44069;DHT22;29738;51.234;5.484;2022-07-09T02:33:51;16.00;99.90
44069;DHT22;29738;51.234;5.484;2022-07-09T02:36:17;16.00;99.90
44069;DHT22;29738;51.234;5.484;2022-07-09T02:38:43;15.90;99.90
44069;DHT22;29738;51.234;5.484;2022-07-09T02:41:09;15.80;99.90
44069;DHT22;29738;51.234;5.484;2022-07-09T02:43:35;15.80;99.90
44069;DHT22;29738;51.234;5.484;2022-07-09T02:46:00;15.70;99.90
44069;DHT22;29738;51.234;5.484;2022-07-09T02:48:27;15.70;99.90
44069;DHT22;29738;51.234;5.484;2022-07-09T02:50:53;15.60;99.90
44069;DHT22;29738;51.234;5.484;2022-07-09T02:53:19;15.60;99.90
44069;DHT22;29738;51.234;5.484;2022-07-09T02:55:45;15.60;99.90
44069;DHT22;29738;51.234;5.484;2022-07-09T02:58:12;15.70;99.90
44069;DHT22;29738;51.234;5.484;2022-07-09T03:00:38;15.50;99.90
44069;DHT22;29738;51.234;5.484;2022-07-09T03:03:07;15.40;99.90
44069;DHT22;29738;51.234;5.484;2022-07-09T03:05:34;15.30;99.90
44069;DHT22;29738;51.234;5.484;2022-07-09T03:08:00;15.20;99.90
44069;DHT22;29738;51.234;5.484;2022-07-09T03:10:27;15.20;99.90
44069;DHT22;29738;51.234;5.484;2022-07-09T03:12:52;15.30;99.90
44069;DHT22;29738;51.234;5.484;2022-07-09T03:15:19;15.30;99.90
44069;DHT22;29738;51.234;5.484;2022-07-09T03:17:45;15.40;99.90
44069;DHT22;29738;51.234;5.484;2022-07-09T03:20:12;15.30;99.90
44069;DHT22;29738;51.234;5.484;2022-07-09T03:22:38;15.30;99.90
44069;DHT22;29738;51.234;5.484;2022-07-09T03:25:05;15.40;99.90
44069;DHT22;29738;51.234;5.484;2022-07-09T03:27:31;15.20;99.90
44069;DHT22;29738;51.234;5.484;2022-07-09T03:29:57;15.50;99.90
44069;DHT22;29738;51.234;5.484;2022-07-09T03:32:22;15.80;99.90
44069;DHT22;29738;51.234;5.484;2022-07-09T03:34:48;15.60;99.90
44069;DHT22;29738;51.234;5.484;2022-07-09T03:37:14;15.50;99.90
44069;DHT22;29738;51.234;5.484;2022-07-09T03:39:40;15.40;99.90
44069;DHT22;29738;51.234;5.484;2022-07-09T03:42:06;15.40;99.90
44069;DHT22;29738;51.234;5.484;2022-07-09T03:44:35;15.20;99.90
44069;DHT22;29738;51.234;5.484;2022-07-09T03:47:01;15.30;99.90
44069;DHT22;29738;51.234;5.484;2022-07-09T03:49:27;15.30;99.90
44069;DHT22;29738;51.234;5.484;2022-07-09T03:51:53;15.40;99.90
44069;DHT22;29738;51.234;5.484;2022-07-09T03:54:19;15.40;99.90
44069;DHT22;29738;51.234;5.484;2022-07-09T03:56:45;15.50;99.90
44069;DHT22;29738;51.234;5.484;2022-07-09T03:59:10;15.40;99.90
44069;DHT22;29738;51.234;5.484;2022-07-09T04:01:37;15.70;99.90
44069;DHT22;29738;51.234;5.484;2022-07-09T04:04:03;15.80;99.90
44069;DHT22;29738;51.234;5.484;2022-07-09T04:06:29;16.10;99.90
44069;DHT22;29738;51.234;5.484;2022-07-09T04:08:55;16.30;99.90
44069;DHT22;29738;51.234;5.484;2022-07-09T04:11:21;16.60;99.90
44069;DHT22;29738;51.234;5.484;2022-07-09T04:13:47;17.00;99.90
44069;DHT22;29738;51.234;5.484;2022-07-09T04:16:13;17.50;99.90
44069;DHT22;29738;51.234;5.484;2022-07-09T04:18:39;17.90;99.90
44069;DHT22;29738;51.234;5.484;2022-07-09T04:21:09;18.30;99.90
44069;DHT22;29738;51.234;5.484;2022-07-09T04:23:35;18.60;99.90
44069;DHT22;29738;51.234;5.484;2022-07-09T04:26:01;19.00;99.90
44069;DHT22;29738;51.234;5.484;2022-07-09T04:28:27;19.50;99.90
44069;DHT22;29738;51.234;5.484;2022-07-09T04:30:53;19.80;99.90
44069;DHT22;29738;51.234;5.484;2022-07-09T04:33:19;20.10;99.90
44069;DHT22;29738;51.234;5.484;2022-07-09T04:35:45;20.30;99.90
44069;DHT22;29738;51.234;5.484;2022-07-09T04:38:14;20.40;99.90
44069;DHT22;29738;51.234;5.484;2022-07-09T04:40:40;20.60;99.90
44069;DHT22;29738;51.234;5.484;2022-07-09T04:43:06;20.70;99.90
44069;DHT22;29738;51.234;5.484;2022-07-09T04:45:33;20.80;99.90
44069;DHT22;29738;51.234;5.484;2022-07-09T04:48:00;20.70;99.90
44069;DHT22;29738;51.234;5.484;2022-07-09T04:50:26;20.70;99.90
44069;DHT22;29738;51.234;5.484;2022-07-09T04:52:51;20.70;99.90
44069;DHT22;29738;51.234;5.484;2022-07-09T04:55:17;20.60;99.90
44069;DHT22;29738;51.234;5.484;2022-07-09T04:57:44;20.60;99.90
44069;DHT22;29738;51.234;5.484;2022-07-09T05:00:10;20.30;99.90
44069;DHT22;29738;51.234;5.484;2022-07-09T05:02:39;20.30;99.90
44069;DHT22;29738;51.234;5.484;2022-07-09T05:05:06;20.70;99.90
44069;DHT22;29738;51.234;5.484;2022-07-09T05:07:33;20.50;99.90
44069;DHT22;29738;51.234;5.484;2022-07-09T05:10:00;20.40;99.90
44069;DHT22;29738;51.234;5.484;2022-07-09T05:12:27;20.10;99.90
44069;DHT22;29738;51.234;5.484;2022-07-09T05:14:55;20.00;99.90
44069;DHT22;29738;51.234;5.484;2022-07-09T05:17:22;20.00;99.90
44069;DHT22;29738;51.234;5.484;2022-07-09T05:19:48;19.90;99.90
44069;DHT22;29738;51.234;5.484;2022-07-09T05:22:14;19.80;99.90
44069;DHT22;29738;51.234;5.484;2022-07-09T05:24:39;19.90;99.90
44069;DHT22;29738;51.234;5.484;2022-07-09T05:27:06;19.70;99.90
44069;DHT22;29738;51.234;5.484;2022-07-09T05:29:32;19.20;99.90
44069;DHT22;29738;51.234;5.484;2022-07-09T05:31:58;19.10;99.90
44069;DHT22;29738;51.234;5.484;2022-07-09T05:34:24;19.40;99.90
44069;DHT22;29738;51.234;5.484;2022-07-09T05:36:50;19.60;99.90
44069;DHT22;29738;51.234;5.484;2022-07-09T05:39:20;20.10;99.90
44069;DHT22;29738;51.234;5.484;2022-07-09T05:41:46;20.30;99.90
44069;DHT22;29738;51.234;5.484;2022-07-09T05:44:12;20.30;99.90
44069;DHT22;29738;51.234;5.484;2022-07-09T05:46:38;20.40;99.90
44069;DHT22;29738;51.234;5.484;2022-07-09T05:49:03;20.30;99.90
44069;DHT22;29738;51.234;5.484;2022-07-09T05:51:29;19.90;99.90
44069;DHT22;29738;51.234;5.484;2022-07-09T05:53:55;19.50;99.90
44069;DHT22;29738;51.234;5.484;2022-07-09T05:56:21;19.40;99.90
44069;DHT22;29738;51.234;5.484;2022-07-09T05:58:47;19.70;99.90
44069;DHT22;29738;51.234;5.484;2022-07-09T06:01:13;19.70;99.90
44069;DHT22;29738;51.234;5.484;2022-07-09T06:03:40;19.50;99.90
44069;DHT22;29738;51.234;5.484;2022-07-09T06:06:06;19.80;99.90
44069;DHT22;29738;51.234;5.484;2022-07-09T06:08:32;19.70;99.90
44069;DHT22;29738;51.234;5.484;2022-07-09T06:10:59;20.00;99.90
44069;DHT22;29738;51.234;5.484;2022-07-09T06:13:25;20.30;99.90
44069;DHT22;29738;51.234;5.484;2022-07-09T06:15:52;20.60;99.90
44069;DHT22;29738;51.234;5.484;2022-07-09T06:18:18;20.80;99.90
44069;DHT22;29738;51.234;5.484;2022-07-09T06:20:44;20.60;99.90
44069;DHT22;29738;51.234;5.484;2022-07-09T06:23:11;20.50;99.90
44069;DHT22;29738;51.234;5.484;2022-07-09T06:25:38;20.70;99.90
44069;DHT22;29738;51.234;5.484;2022-07-09T06:28:04;20.90;99.90
44069;DHT22;29738;51.234;5.484;2022-07-09T06:30:30;20.70;99.90
44069;DHT22;29738;51.234;5.484;2022-07-09T06:32:57;20.70;99.90
44069;DHT22;29738;51.234;5.484;2022-07-09T06:35:23;20.80;99.90
44069;DHT22;29738;51.234;5.484;2022-07-09T06:37:49;21.00;99.90
44069;DHT22;29738;51.234;5.484;2022-07-09T06:40:14;21.30;99.90
44069;DHT22;29738;51.234;5.484;2022-07-09T06:42:40;21.50;99.90
44069;DHT22;29738;51.234;5.484;2022-07-09T06:45:07;21.60;99.90
44069;DHT22;29738;51.234;5.484;2022-07-09T06:47:34;21.40;99.90
44069;DHT22;29738;51.234;5.484;2022-07-09T06:49:59;21.50;99.90
44069;DHT22;29738;51.234;5.484;2022-07-09T06:52:25;21.70;99.90
44069;DHT22;29738;51.234;5.484;2022-07-09T06:54:51;21.70;99.90
44069;DHT22;29738;51.234;5.484;2022-07-09T06:57:17;22.00;99.90
44069;DHT22;29738;51.234;5.484;2022-07-09T06:59:43;22.20;99.90
44069;DHT22;29738;51.234;5.484;2022-07-09T07:02:11;22.10;99.90
44069;DHT22;29738;51.234;5.484;2022-07-09T07:04:37;22.30;99.90
44069;DHT22;29738;51.234;5.484;2022-07-09T07:07:03;21.90;99.90
44069;DHT22;29738;51.234;5.484;2022-07-09T07:09:30;22.20;99.90
44069;DHT22;29738;51.234;5.484;2022-07-09T07:11:56;22.30;99.90
44069;DHT22;29738;51.234;5.484;2022-07-09T07:14:21;22.40;99.90
44069;DHT22;29738;51.234;5.484;2022-07-09T07:16:47;22.40;99.90
44069;DHT22;29738;51.234;5.484;2022-07-09T07:19:13;22.00;99.90
44069;DHT22;29738;51.234;5.484;2022-07-09T07:21:39;22.20;99.90
44069;DHT22;29738;51.234;5.484;2022-07-09T07:24:05;22.10;99.90
44069;DHT22;29738;51.234;5.484;2022-07-09T07:26:32;22.10;99.90
44069;DHT22;29738;51.234;5.484;2022-07-09T07:28:58;22.40;99.90
44069;DHT22;29738;51.234;5.484;2022-07-09T07:31:24;22.30;99.90
44069;DHT22;29738;51.234;5.484;2022-07-09T07:33:51;22.50;99.90
44069;DHT22;29738;51.234;5.484;2022-07-09T07:36:16;22.50;99.90
44069;DHT22;29738;51.234;5.484;2022-07-09T07:38:42;22.40;99.90
44069;DHT22;29738;51.234;5.484;2022-07-09T07:41:08;22.40;99.90
44069;DHT22;29738;51.234;5.484;2022-07-09T07:43:34;22.70;99.90
44069;DHT22;29738;51.234;5.484;2022-07-09T07:45:59;22.60;99.90
44069;DHT22;29738;51.234;5.484;2022-07-09T07:48:25;22.50;99.90
44069;DHT22;29738;51.234;5.484;2022-07-09T07:50:53;22.30;99.90
44069;DHT22;29738;51.234;5.484;2022-07-09T07:53:20;22.50;99.90
44069;DHT22;29738;51.234;5.484;2022-07-09T07:55:46;22.70;99.90
44069;DHT22;29738;51.234;5.484;2022-07-09T07:58:12;22.80;99.90
44069;DHT22;29738;51.234;5.484;2022-07-09T08:00:37;22.60;99.90
44069;DHT22;29738;51.234;5.484;2022-07-09T08:03:04;22.60;99.90
44069;DHT22;29738;51.234;5.484;2022-07-09T08:05:29;22.50;99.90
44069;DHT22;29738;51.234;5.484;2022-07-09T08:07:55;23.20;99.90
44069;DHT22;29738;51.234;5.484;2022-07-09T08:10:21;23.40;99.90
44069;DHT22;29738;51.234;5.484;2022-07-09T08:12:47;23.40;99.90
44069;DHT22;29738;51.234;5.484;2022-07-09T08:15:13;23.40;99.90
44069;DHT22;29738;51.234;5.484;2022-07-09T08:17:39;23.40;99.90
44069;DHT22;29738;51.234;5.484;2022-07-09T08:20:06;24.10;99.90
44069;DHT22;29738;51.234;5.484;2022-07-09T08:22:32;24.30;99.90
44069;DHT22;29738;51.234;5.484;2022-07-09T08:24:58;24.10;99.90
44069;DHT22;29738;51.234;5.484;2022-07-09T08:27:23;23.90;99.90
44069;DHT22;29738;51.234;5.484;2022-07-09T08:29:49;23.60;99.90
44069;DHT22;29738;51.234;5.484;2022-07-09T08:32:15;23.50;99.90
44069;DHT22;29738;51.234;5.484;2022-07-09T08:34:41;23.40;99.90
44069;DHT22;29738;51.234;5.484;2022-07-09T08:37:07;23.70;99.90
44069;DHT22;29738;51.234;5.484;2022-07-09T08:39:33;23.90;99.90
44069;DHT22;29738;51.234;5.484;2022-07-09T08:41:59;24.20;99.90
44069;DHT22;29738;51.234;5.484;2022-07-09T08:44:29;24.20;99.90
44069;DHT22;29738;51.234;5.484;2022-07-09T08:47:00;24.40;99.90
44069;DHT22;29738;51.234;5.484;2022-07-09T08:49:27;24.20;99.90
44069;DHT22;29738;51.234;5.484;2022-07-09T08:51:55;24.20;99.90
44069;DHT22;29738;51.234;5.484;2022-07-09T08:54:22;24.70;99.90
44069;DHT22;29738;51.234;5.484;2022-07-09T08:56:49;25.40;99.90
44069;DHT22;29738;51.234;5.484;2022-07-09T08:59:16;25.30;99.90
44069;DHT22;29738;51.234;5.484;2022-07-09T09:01:42;25.30;99.90
44069;DHT22;29738;51.234;5.484;2022-07-09T09:04:08;25.10;99.90
44069;DHT22;29738;51.234;5.484;2022-07-09T09:06:40;25.50;99.90
44069;DHT22;29738;51.234;5.484;2022-07-09T09:09:16;25.60;99.90
44069;DHT22;29738;51.234;5.484;2022-07-09T09:11:42;25.40;99.90
44069;DHT22;29738;51.234;5.484;2022-07-09T09:14:18;25.20;99.90
44069;DHT22;29738;51.234;5.484;2022-07-09T09:16:45;24.70;99.90
44069;DHT22;29738;51.234;5.484;2022-07-09T09:19:11;24.40;99.90
44069;DHT22;29738;51.234;5.484;2022-07-09T09:21:37;24.50;99.90
44069;DHT22;29738;51.234;5.484;2022-07-09T09:24:03;24.60;99.90
44069;DHT22;29738;51.234;5.484;2022-07-09T09:26:29;24.50;99.90
44069;DHT22;29738;51.234;5.484;2022-07-09T09:29:00;24.30;99.90
44069;DHT22;29738;51.234;5.484;2022-07-09T09:31:28;24.70;99.90
44069;DHT22;29738;51.234;5.484;2022-07-09T09:33:56;24.70;99.90
44069;DHT22;29738;51.234;5.484;2022-07-09T09:36:32;24.50;99.90
44069;DHT22;29738;51.234;5.484;2022-07-09T09:41:33;24.20;99.90
44069;DHT22;29738;51.234;5.484;2022-07-09T09:44:09;24.40;99.90
44069;DHT22;29738;51.234;5.484;2022-07-09T09:46:37;24.50;99.90
44069;DHT22;29738;51.234;5.484;2022-07-09T09:49:07;24.60;99.90
44069;DHT22;29738;51.234;5.484;2022-07-09T09:52:02;24.40;99.90
44069;DHT22;29738;51.234;5.484;2022-07-09T09:54:31;24.30;99.90
44069;DHT22;29738;51.234;5.484;2022-07-09T09:56:59;24.10;99.90
44069;DHT22;29738;51.234;5.484;2022-07-09T09:59:25;24.10;99.90
44069;DHT22;29738;51.234;5.484;2022-07-09T10:01:51;24.20;99.90
44069;DHT22;29738;51.234;5.484;2022-07-09T10:04:17;24.40;99.90
44069;DHT22;29738;51.234;5.484;2022-07-09T10:06:44;24.50;99.90
44069;DHT22;29738;51.234;5.484;2022-07-09T10:09:14;24.60;99.90
44069;DHT22;29738;51.234;5.484;2022-07-09T10:11:48;24.50;99.90
44069;DHT22;29738;51.234;5.484;2022-07-09T10:14:36;24.50;99.90
44069;DHT22;29738;51.234;5.484;2022-07-09T10:17:13;24.40;99.90
44069;DHT22;29738;51.234;5.484;2022-07-09T10:19:56;24.70;99.90
44069;DHT22;29738;51.234;5.484;2022-07-09T10:22:37;24.50;99.90
44069;DHT22;29738;51.234;5.484;2022-07-09T10:25:04;24.20;99.90
44069;DHT22;29738;51.234;5.484;2022-07-09T10:27:41;24.50;99.90
44069;DHT22;29738;51.234;5.484;2022-07-09T10:30:09;24.90;99.90
44069;DHT22;29738;51.234;5.484;2022-07-09T10:35:28;24.80;99.90
44069;DHT22;29738;51.234;5.484;2022-07-09T10:37:54;24.90;99.90
44069;DHT22;29738;51.234;5.484;2022-07-09T10:40:22;25.20;99.90
44069;DHT22;29738;51.234;5.484;2022-07-09T10:42:59;25.50;99.90
44069;DHT22;29738;51.234;5.484;2022-07-09T10:45:27;25.00;99.90
44069;DHT22;29738;51.234;5.484;2022-07-09T10:47:58;24.70;99.90
44069;DHT22;29738;51.234;5.484;2022-07-09T10:50:25;24.20;99.90
44069;DHT22;29738;51.234;5.484;2022-07-09T10:52:51;24.00;99.90
44069;DHT22;29738;51.234;5.484;2022-07-09T10:55:21;23.90;99.90
44069;DHT22;29738;51.234;5.484;2022-07-09T10:57:47;24.00;99.90
44069;DHT22;29738;51.234;5.484;2022-07-09T11:00:18;23.80;99.90
44069;DHT22;29738;51.234;5.484;2022-07-09T11:03:00;23.80;99.90
44069;DHT22;29738;51.234;5.484;2022-07-09T11:05:31;23.80;99.90
44069;DHT22;29738;51.234;5.484;2022-07-09T11:08:03;23.90;99.90
44069;DHT22;29738;51.234;5.484;2022-07-09T11:10:31;23.80;99.90
44069;DHT22;29738;51.234;5.484;2022-07-09T11:12:59;23.90;99.90
44069;DHT22;29738;51.234;5.484;2022-07-09T11:15:27;23.50;99.90
44069;DHT22;29738;51.234;5.484;2022-07-09T11:17:58;23.20;99.90
44069;DHT22;29738;51.234;5.484;2022-07-09T11:20:25;23.10;99.90
44069;DHT22;29738;51.234;5.484;2022-07-09T11:22:51;23.00;99.90
44069;DHT22;29738;51.234;5.484;2022-07-09T11:25:17;23.10;99.90
44069;DHT22;29738;51.234;5.484;2022-07-09T11:27:43;23.10;99.90
44069;DHT22;29738;51.234;5.484;2022-07-09T11:30:14;23.10;99.90
44069;DHT22;29738;51.234;5.484;2022-07-09T11:32:43;23.40;99.90
44069;DHT22;29738;51.234;5.484;2022-07-09T11:35:10;23.60;99.90
44069;DHT22;29738;51.234;5.484;2022-07-09T11:37:37;23.50;99.90
44069;DHT22;29738;51.234;5.484;2022-07-09T11:40:04;23.60;99.90
44069;DHT22;29738;51.234;5.484;2022-07-09T11:42:30;23.40;99.90
44069;DHT22;29738;51.234;5.484;2022-07-09T11:44:57;23.00;99.90
44069;DHT22;29738;51.234;5.484;2022-07-09T11:47:34;22.90;99.90
44069;DHT22;29738;51.234;5.484;2022-07-09T11:52:34;23.80;99.90
44069;DHT22;29738;51.234;5.484;2022-07-09T11:55:07;24.10;99.90
44069;DHT22;29738;51.234;5.484;2022-07-09T11:57:35;24.40;99.90
44069;DHT22;29738;51.234;5.484;2022-07-09T12:00:03;24.00;99.90
44069;DHT22;29738;51.234;5.484;2022-07-09T12:02:31;24.20;99.90
44069;DHT22;29738;51.234;5.484;2022-07-09T12:04:59;24.60;99.90
44069;DHT22;29738;51.234;5.484;2022-07-09T12:07:25;24.10;99.90
44069;DHT22;29738;51.234;5.484;2022-07-09T12:10:02;24.20;99.90
44069;DHT22;29738;51.234;5.484;2022-07-09T12:12:31;24.30;99.90
44069;DHT22;29738;51.234;5.484;2022-07-09T12:14:57;24.60;99.90
44069;DHT22;29738;51.234;5.484;2022-07-09T12:17:24;24.20;99.90
44069;DHT22;29738;51.234;5.484;2022-07-09T12:19:54;23.50;99.90
44069;DHT22;29738;51.234;5.484;2022-07-09T12:22:21;23.40;99.90
44069;DHT22;29738;51.234;5.484;2022-07-09T12:24:49;23.50;99.90
44069;DHT22;29738;51.234;5.484;2022-07-09T12:27:15;23.70;99.90
44069;DHT22;29738;51.234;5.484;2022-07-09T12:29:41;24.00;99.90
44069;DHT22;29738;51.234;5.484;2022-07-09T12:32:07;23.80;99.90
44069;DHT22;29738;51.234;5.484;2022-07-09T12:34:34;23.30;99.90
44069;DHT22;29738;51.234;5.484;2022-07-09T12:37:00;23.10;99.90
44069;DHT22;29738;51.234;5.484;2022-07-09T12:39:27;23.10;99.90
44069;DHT22;29738;51.234;5.484;2022-07-09T12:41:53;23.50;99.90
44069;DHT22;29738;51.234;5.484;2022-07-09T12:44:19;23.60;99.90
44069;DHT22;29738;51.234;5.484;2022-07-09T12:46:44;23.70;99.90
44069;DHT22;29738;51.234;5.484;2022-07-09T12:49:10;23.80;99.90
44069;DHT22;29738;51.234;5.484;2022-07-09T12:51:36;23.60;99.90
44069;DHT22;29738;51.234;5.484;2022-07-09T12:54:02;23.80;99.90
44069;DHT22;29738;51.234;5.484;2022-07-09T12:56:28;23.80;99.90
44069;DHT22;29738;51.234;5.484;2022-07-09T12:58:53;23.60;99.90
44069;DHT22;29738;51.234;5.484;2022-07-09T13:01:19;23.60;99.90
44069;DHT22;29738;51.234;5.484;2022-07-09T13:03:45;23.80;99.90
44069;DHT22;29738;51.234;5.484;2022-07-09T13:06:11;24.00;99.90
44069;DHT22;29738;51.234;5.484;2022-07-09T13:08:56;24.20;99.90
44069;DHT22;29738;51.234;5.484;2022-07-09T13:11:22;24.40;99.90
44069;DHT22;29738;51.234;5.484;2022-07-09T13:13:48;24.70;99.90
44069;DHT22;29738;51.234;5.484;2022-07-09T13:16:14;24.00;99.90
44069;DHT22;29738;51.234;5.484;2022-07-09T13:18:40;23.80;99.90
44069;DHT22;29738;51.234;5.484;2022-07-09T13:21:06;23.80;99.90
44069;DHT22;29738;51.234;5.484;2022-07-09T13:23:32;24.20;99.90
44069;DHT22;29738;51.234;5.484;2022-07-09T13:25:58;24.20;99.90
44069;DHT22;29738;51.234;5.484;2022-07-09T13:28:24;23.90;99.90
44069;DHT22;29738;51.234;5.484;2022-07-09T13:30:50;23.40;99.90
44069;DHT22;29738;51.234;5.484;2022-07-09T13:33:16;23.20;99.90
44069;DHT22;29738;51.234;5.484;2022-07-09T13:35:42;23.60;99.90
44069;DHT22;29738;51.234;5.484;2022-07-09T13:38:09;24.00;99.90
44069;DHT22;29738;51.234;5.484;2022-07-09T13:40:34;24.20;99.90
44069;DHT22;29738;51.234;5.484;2022-07-09T13:43:00;23.70;99.90
44069;DHT22;29738;51.234;5.484;2022-07-09T13:45:26;23.40;99.90
44069;DHT22;29738;51.234;5.484;2022-07-09T13:47:55;23.20;99.90
44069;DHT22;29738;51.234;5.484;2022-07-09T13:50:21;23.00;99.90
44069;DHT22;29738;51.234;5.484;2022-07-09T13:52:47;23.30;99.90
44069;DHT22;29738;51.234;5.484;2022-07-09T13:55:13;23.50;99.90
44069;DHT22;29738;51.234;5.484;2022-07-09T13:57:39;23.70;99.90
44069;DHT22;29738;51.234;5.484;2022-07-09T14:00:06;23.80;99.90
44069;DHT22;29738;51.234;5.484;2022-07-09T14:02:33;23.70;99.90
44069;DHT22;29738;51.234;5.484;2022-07-09T14:05:00;23.60;99.90
44069;DHT22;29738;51.234;5.484;2022-07-09T14:07:26;23.20;99.90
44069;DHT22;29738;51.234;5.484;2022-07-09T14:09:52;23.50;99.90
44069;DHT22;29738;51.234;5.484;2022-07-09T14:12:18;23.40;99.90
44069;DHT22;29738;51.234;5.484;2022-07-09T14:14:44;23.60;99.90
44069;DHT22;29738;51.234;5.484;2022-07-09T14:17:10;23.80;99.90
44069;DHT22;29738;51.234;5.484;2022-07-09T14:19:36;23.70;99.90
44069;DHT22;29738;51.234;5.484;2022-07-09T14:22:03;23.40;99.90
44069;DHT22;29738;51.234;5.484;2022-07-09T14:24:28;23.40;99.90
44069;DHT22;29738;51.234;5.484;2022-07-09T14:26:54;23.10;99.90
44069;DHT22;29738;51.234;5.484;2022-07-09T14:29:21;23.10;99.90
44069;DHT22;29738;51.234;5.484;2022-07-09T14:31:47;23.30;99.90
44069;DHT22;29738;51.234;5.484;2022-07-09T14:34:12;23.30;99.90
44069;DHT22;29738;51.234;5.484;2022-07-09T14:36:38;23.30;99.90
44069;DHT22;29738;51.234;5.484;2022-07-09T14:39:04;23.80;99.90
44069;DHT22;29738;51.234;5.484;2022-07-09T14:41:30;23.80;99.90
44069;DHT22;29738;51.234;5.484;2022-07-09T14:43:56;23.60;99.90
44069;DHT22;29738;51.234;5.484;2022-07-09T14:46:22;23.50;99.90
44069;DHT22;29738;51.234;5.484;2022-07-09T14:48:48;23.20;99.90
44069;DHT22;29738;51.234;5.484;2022-07-09T14:51:14;23.30;99.90
44069;DHT22;29738;51.234;5.484;2022-07-09T14:53:40;23.40;99.90
44069;DHT22;29738;51.234;5.484;2022-07-09T14:56:06;23.40;99.90
44069;DHT22;29738;51.234;5.484;2022-07-09T14:58:32;23.50;99.90
44069;DHT22;29738;51.234;5.484;2022-07-09T15:00:59;23.80;99.90
44069;DHT22;29738;51.234;5.484;2022-07-09T15:03:25;24.00;99.90
44069;DHT22;29738;51.234;5.484;2022-07-09T15:05:51;23.80;99.90
44069;DHT22;29738;51.234;5.484;2022-07-09T15:08:17;23.30;99.90
44069;DHT22;29738;51.234;5.484;2022-07-09T15:10:42;23.10;99.90
44069;DHT22;29738;51.234;5.484;2022-07-09T15:13:08;23.00;99.90
44069;DHT22;29738;51.234;5.484;2022-07-09T15:15:35;23.10;99.90
44069;DHT22;29738;51.234;5.484;2022-07-09T15:18:02;22.90;99.90
44069;DHT22;29738;51.234;5.484;2022-07-09T15:20:28;22.70;99.90
44069;DHT22;29738;51.234;5.484;2022-07-09T15:22:54;22.60;99.90
44069;DHT22;29738;51.234;5.484;2022-07-09T15:25:20;22.50;99.90
44069;DHT22;29738;51.234;5.484;2022-07-09T15:27:46;22.80;99.90
44069;DHT22;29738;51.234;5.484;2022-07-09T15:30:12;22.80;99.90
44069;DHT22;29738;51.234;5.484;2022-07-09T15:32:38;22.90;99.90
44069;DHT22;29738;51.234;5.484;2022-07-09T15:35:04;22.90;99.90
44069;DHT22;29738;51.234;5.484;2022-07-09T15:37:30;23.00;99.90